createdAt,value
2022-07-28T00:00:05.887Z,38.7700
2022-07-28T00:00:19.490Z,38.8770
2022-07-28T00:00:30.550Z,38.8030
2022-07-28T00:00:41.624Z,38.7970
2022-07-28T00:00:52.665Z,38.8030
2022-07-28T00:01:03.726Z,38.7910
2022-07-28T00:01:14.846Z,38.7970
2022-07-28T00:01:29.705Z,38.9480
2022-07-28T00:01:40.815Z,38.8720
2022-07-28T00:01:51.931Z,38.8360
2022-07-28T00:02:03.062Z,38.8130
2022-07-28T00:02:14.149Z,38.8010
2022-07-28T00:02:25.235Z,38.8010
2022-07-28T00:02:36.383Z,38.8300
2022-07-28T00:02:47.455Z,38.8190
2022-07-28T00:02:58.546Z,38.7820
2022-07-28T00:03:09.813Z,38.7950
2022-07-28T00:03:21.098Z,38.8240
2022-07-28T00:03:32.210Z,38.8420
2022-07-28T00:03:43.279Z,38.8360
2022-07-28T00:03:54.348Z,38.8130
2022-07-28T00:04:05.427Z,38.8070
2022-07-28T00:04:16.953Z,38.7950
2022-07-28T00:04:28.150Z,38.8130
2022-07-28T00:04:39.223Z,38.8130
2022-07-28T00:04:50.287Z,38.8130
2022-07-28T00:05:01.367Z,38.8010
2022-07-28T00:05:12.446Z,38.8010
2022-07-28T00:05:23.517Z,38.8130
2022-07-28T00:05:34.590Z,38.8190
2022-07-28T00:05:45.638Z,38.8130
2022-07-28T00:05:56.839Z,38.8080
2022-07-28T00:06:07.923Z,38.8080
2022-07-28T00:06:19.024Z,38.8250
2022-07-28T00:06:30.068Z,38.8310
2022-07-28T00:06:41.149Z,38.8290
2022-07-28T00:06:52.208Z,38.8460
2022-07-28T00:07:03.280Z,38.8400
2022-07-28T00:07:14.331Z,38.8460
2022-07-28T00:07:25.379Z,38.8290
2022-07-28T00:07:36.419Z,38.8290
2022-07-28T00:07:47.490Z,38.8340
2022-07-28T00:07:58.843Z,38.8290
2022-07-28T00:08:09.914Z,38.8520
2022-07-28T00:08:20.957Z,38.8460
2022-07-28T00:08:32.000Z,38.8400
2022-07-28T00:08:43.074Z,38.8400
2022-07-28T00:08:54.117Z,38.8400
2022-07-28T00:09:05.171Z,38.8340
2022-07-28T00:09:16.240Z,38.8340
2022-07-28T00:09:27.289Z,38.8460
2022-07-28T00:09:38.357Z,38.8670
2022-07-28T00:09:49.420Z,38.8630
2022-07-28T00:10:01.130Z,38.8460
2022-07-28T00:10:12.307Z,38.8880
2022-07-28T00:10:23.374Z,38.8670
2022-07-28T00:10:34.444Z,38.8580
2022-07-28T00:10:45.938Z,38.8520
2022-07-28T00:10:57.005Z,38.8690
2022-07-28T00:11:08.052Z,38.8340
2022-07-28T00:11:19.121Z,38.8290
2022-07-28T00:11:30.180Z,38.8290
2022-07-28T00:11:54.274Z,38.8170
2022-07-28T00:11:58.212Z,39.0230
2022-07-28T00:12:09.286Z,38.9400
2022-07-28T00:12:20.352Z,38.8750
2022-07-28T00:12:31.418Z,38.8400
2022-07-28T00:12:42.481Z,38.8290
2022-07-28T00:12:53.524Z,38.8230
2022-07-28T00:13:06.954Z,38.8230
2022-07-28T00:13:18.151Z,38.9280
2022-07-28T00:13:29.221Z,38.8690
2022-07-28T00:13:40.301Z,38.8400
2022-07-28T00:13:51.398Z,38.8230
2022-07-28T00:14:02.461Z,38.8040
2022-07-28T00:14:13.994Z,38.8040
2022-07-28T00:14:25.325Z,38.8230
2022-07-28T00:14:36.376Z,38.7930
2022-07-28T00:14:47.432Z,38.7770
2022-07-28T00:14:58.493Z,38.7710
2022-07-28T00:15:09.538Z,38.7600
2022-07-28T00:15:20.597Z,38.7660
2022-07-28T00:15:31.688Z,38.7750
2022-07-28T00:15:42.760Z,38.7750
2022-07-28T00:15:53.905Z,38.7810
2022-07-28T00:16:05.185Z,38.7750
2022-07-28T00:16:16.355Z,38.7930
2022-07-28T00:16:27.539Z,38.8040
2022-07-28T00:16:38.746Z,38.8120
2022-07-28T00:16:49.836Z,38.8250
2022-07-28T00:17:00.927Z,38.8250
2022-07-28T00:17:11.997Z,38.8370
2022-07-28T00:17:23.045Z,38.8310
2022-07-28T00:17:34.114Z,38.8310
2022-07-28T00:17:45.199Z,38.8310
2022-07-28T00:17:56.714Z,38.8310
2022-07-28T00:18:07.756Z,38.8560
2022-07-28T00:18:18.832Z,38.8440
2022-07-28T00:18:29.884Z,38.8500
2022-07-28T00:18:40.958Z,38.8370
2022-07-28T00:18:52.024Z,38.8200
2022-07-28T00:19:03.094Z,38.8020
2022-07-28T00:19:14.174Z,38.8020
2022-07-28T00:19:25.255Z,38.8140
2022-07-28T00:19:36.338Z,38.8080
2022-07-28T00:19:47.399Z,38.8120
2022-07-28T00:19:58.695Z,38.7870
2022-07-28T00:20:09.768Z,38.7930
2022-07-28T00:20:20.831Z,38.8040
2022-07-28T00:20:31.878Z,38.7810
2022-07-28T00:20:42.945Z,38.7750
2022-07-28T00:20:54.014Z,38.7870
2022-07-28T00:21:05.084Z,38.7810
2022-07-28T00:21:16.134Z,38.8040
2022-07-28T00:21:27.359Z,38.7930
2022-07-28T00:21:38.425Z,38.7870
2022-07-28T00:21:49.504Z,38.7930
2022-07-28T00:22:00.833Z,38.8120
2022-07-28T00:22:11.898Z,38.8250
2022-07-28T00:22:22.959Z,38.8140
2022-07-28T00:22:34.047Z,38.8200
2022-07-28T00:22:45.106Z,38.8250
2022-07-28T00:22:56.174Z,38.8250
2022-07-28T00:23:07.245Z,38.8140
2022-07-28T00:23:18.318Z,38.8200
2022-07-28T00:23:39.133Z,38.8140
2022-07-28T00:23:46.547Z,39.0210
2022-07-28T00:23:57.752Z,38.9580
2022-07-28T00:24:08.802Z,38.9050
2022-07-28T00:24:19.881Z,38.8510
2022-07-28T00:24:31.062Z,38.8450
2022-07-28T00:24:42.131Z,38.8620
2022-07-28T00:24:53.211Z,38.8560
2022-07-28T00:25:04.308Z,38.8450
2022-07-28T00:25:15.390Z,38.8390
2022-07-28T00:25:26.446Z,38.8410
2022-07-28T00:25:37.511Z,38.8590
2022-07-28T00:25:48.564Z,38.8800
2022-07-28T00:25:59.634Z,38.8800
2022-07-28T00:26:10.715Z,38.8910
2022-07-28T00:26:21.791Z,38.9140
2022-07-28T00:26:32.989Z,38.9090
2022-07-28T00:26:46.329Z,38.9090
2022-07-28T00:26:57.865Z,39.0270
2022-07-28T00:27:08.917Z,38.9580
2022-07-28T00:27:19.980Z,38.9180
2022-07-28T00:27:31.052Z,38.9140
2022-07-28T00:27:42.148Z,38.9030
2022-07-28T00:27:53.422Z,38.8850
2022-07-28T00:28:04.611Z,38.8740
2022-07-28T00:28:15.681Z,38.8870
2022-07-28T00:28:27.772Z,38.9320
2022-07-28T00:28:38.831Z,38.9090
2022-07-28T00:28:49.906Z,38.8910
2022-07-28T00:29:00.970Z,38.8850
2022-07-28T00:29:12.032Z,38.8800
2022-07-28T00:29:23.109Z,38.8740
2022-07-28T00:29:49.791Z,38.8610
2022-07-28T00:29:51.415Z,39.1000
2022-07-28T00:30:02.452Z,39.0180
2022-07-28T00:30:13.524Z,38.9480
2022-07-28T00:30:24.583Z,38.9300
2022-07-28T00:30:35.644Z,38.9300
2022-07-28T00:30:46.867Z,38.9360
2022-07-28T00:30:57.980Z,38.9180
2022-07-28T00:31:15.010Z,39.1310
2022-07-28T00:31:26.146Z,39.0490
2022-07-28T00:31:37.567Z,38.9890
2022-07-28T00:31:49.173Z,38.9840
2022-07-28T00:32:00.695Z,38.9590
2022-07-28T00:32:11.845Z,38.9480
2022-07-28T00:32:23.006Z,38.9480
2022-07-28T00:32:34.096Z,38.9300
2022-07-28T00:32:45.284Z,38.9420
2022-07-28T00:32:56.717Z,38.9420
2022-07-28T00:33:07.927Z,38.9360
2022-07-28T00:33:18.999Z,38.9360
2022-07-28T00:33:30.055Z,38.9360
2022-07-28T00:33:41.118Z,38.9360
2022-07-28T00:33:52.188Z,38.9480
2022-07-28T00:34:03.237Z,38.9300
2022-07-28T00:34:14.823Z,38.9250
2022-07-28T00:34:26.663Z,38.9670
2022-07-28T00:34:37.937Z,38.9670
2022-07-28T00:34:53.424Z,39.0430
2022-07-28T00:35:04.790Z,39.0120
2022-07-28T00:35:30.153Z,39.0600
2022-07-28T00:35:36.175Z,39.1540
2022-07-28T00:35:48.501Z,39.0620
2022-07-28T00:35:59.974Z,39.0570
2022-07-28T00:36:11.771Z,38.9860
2022-07-28T00:36:24.653Z,39.0110
2022-07-28T00:36:36.924Z,39.0760
2022-07-28T00:36:50.091Z,39.0810
2022-07-28T00:37:01.300Z,39.0050
2022-07-28T00:37:18.260Z,39.1750
2022-07-28T00:37:30.047Z,39.1080
2022-07-28T00:37:41.166Z,39.0320
2022-07-28T00:37:52.209Z,38.9930
2022-07-28T00:38:03.248Z,38.9690
2022-07-28T00:38:14.958Z,38.9860
2022-07-28T00:38:26.429Z,38.9800
2022-07-28T00:38:37.488Z,38.9630
2022-07-28T00:38:51.969Z,39.1260
2022-07-28T00:39:04.520Z,39.0970
2022-07-28T00:39:15.589Z,39.0080
2022-07-28T00:39:26.645Z,38.9900
2022-07-28T00:39:37.679Z,38.9730
2022-07-28T00:39:48.762Z,38.9610
2022-07-28T00:39:59.969Z,38.9480
2022-07-28T00:40:11.049Z,38.9480
2022-07-28T00:40:22.104Z,38.9370
2022-07-28T00:40:33.315Z,38.9140
2022-07-28T00:40:44.373Z,38.9310
2022-07-28T00:40:55.456Z,38.9340
2022-07-28T00:41:06.507Z,38.9280
2022-07-28T00:41:17.535Z,38.9160
2022-07-28T00:41:28.614Z,38.8980
2022-07-28T00:41:39.684Z,38.8870
2022-07-28T00:41:52.696Z,38.9900
2022-07-28T00:42:03.837Z,38.9560
2022-07-28T00:42:14.877Z,38.9420
2022-07-28T00:42:25.948Z,38.9370
2022-07-28T00:42:36.989Z,38.9250
2022-07-28T00:42:48.058Z,38.9370
2022-07-28T00:42:59.115Z,38.9370
2022-07-28T00:43:10.182Z,38.9610
2022-07-28T00:43:21.222Z,38.9560
2022-07-28T00:43:32.297Z,38.9260
2022-07-28T00:43:43.361Z,38.9370
2022-07-28T00:43:54.422Z,38.9620
2022-07-28T00:44:05.491Z,38.9680
2022-07-28T00:44:16.944Z,38.9500
2022-07-28T00:44:28.236Z,38.9680
2022-07-28T00:44:39.286Z,38.9500
2022-07-28T00:44:50.347Z,38.9500
2022-07-28T00:45:01.406Z,38.9500
2022-07-28T00:45:12.454Z,38.9560
2022-07-28T00:45:23.520Z,38.9250
2022-07-28T00:45:34.588Z,38.9310
2022-07-28T00:45:45.645Z,38.9370
2022-07-28T00:45:56.717Z,38.9320
2022-07-28T00:46:08.032Z,38.9560
2022-07-28T00:46:19.143Z,38.9730
2022-07-28T00:46:30.353Z,38.9500
2022-07-28T00:46:41.476Z,38.9260
2022-07-28T00:46:52.680Z,38.9450
2022-07-28T00:47:03.820Z,38.9320
2022-07-28T00:47:14.888Z,38.9260
2022-07-28T00:47:25.959Z,38.9260
2022-07-28T00:47:37.483Z,38.9310
2022-07-28T00:47:48.545Z,38.9560
2022-07-28T00:47:59.598Z,38.9560
2022-07-28T00:48:11.201Z,38.9480
2022-07-28T00:48:22.259Z,38.9560
2022-07-28T00:48:33.372Z,38.9310
2022-07-28T00:48:44.491Z,38.9190
2022-07-28T00:48:55.622Z,38.9310
2022-07-28T00:49:06.794Z,38.9140
2022-07-28T00:49:17.937Z,38.9200
2022-07-28T00:49:28.974Z,38.9320
2022-07-28T00:49:40.160Z,38.9450
2022-07-28T00:49:51.216Z,38.9500
2022-07-28T00:50:02.483Z,38.9700
2022-07-28T00:50:13.507Z,38.9580
2022-07-28T00:50:24.577Z,38.9450
2022-07-28T00:50:35.834Z,38.9370
2022-07-28T00:50:46.896Z,38.9500
2022-07-28T00:50:57.994Z,38.9560
2022-07-28T00:51:09.083Z,38.9320
2022-07-28T00:51:20.155Z,38.9080
2022-07-28T00:51:31.203Z,38.9030
2022-07-28T00:51:42.447Z,38.9020
2022-07-28T00:51:53.478Z,38.9020
2022-07-28T00:52:04.716Z,38.9080
2022-07-28T00:52:15.857Z,38.9140
2022-07-28T00:52:26.913Z,38.9260
2022-07-28T00:52:37.990Z,38.9260
2022-07-28T00:52:49.026Z,38.9260
2022-07-28T00:53:00.216Z,38.9320
2022-07-28T00:53:11.275Z,38.9320
2022-07-28T00:53:22.322Z,38.9260
2022-07-28T00:53:34.490Z,38.9730
2022-07-28T00:53:45.577Z,38.9320
2022-07-28T00:53:56.645Z,38.8970
2022-07-28T00:54:07.713Z,38.9080
2022-07-28T00:54:18.783Z,38.9140
2022-07-28T00:54:30.066Z,38.9140
2022-07-28T00:54:41.235Z,38.9260
2022-07-28T00:54:52.305Z,38.9140
2022-07-28T00:55:03.466Z,38.9200
2022-07-28T00:55:14.532Z,38.9200
2022-07-28T00:55:25.597Z,38.9120
2022-07-28T00:56:03.699Z,39.1470
2022-07-28T00:56:04.084Z,38.9300
2022-07-28T00:56:10.595Z,39.2390
2022-07-28T00:56:21.675Z,39.1130
2022-07-28T00:56:32.928Z,39.0380
2022-07-28T00:56:43.976Z,39.0150
2022-07-28T00:56:55.063Z,38.9910
2022-07-28T00:57:06.277Z,38.9910
2022-07-28T00:57:17.338Z,38.9910
2022-07-28T00:57:28.408Z,38.9850
2022-07-28T00:57:39.477Z,38.9780
2022-07-28T00:57:50.543Z,38.9780
2022-07-28T00:58:01.601Z,38.9580
2022-07-28T00:58:12.647Z,38.9410
2022-07-28T00:58:23.726Z,38.9300
2022-07-28T00:58:35.078Z,38.9240
2022-07-28T00:58:46.128Z,38.9530
2022-07-28T00:58:57.198Z,38.9300
2022-07-28T00:59:08.450Z,38.9350
2022-07-28T00:59:19.495Z,38.9550
2022-07-28T00:59:30.549Z,38.9670
2022-07-28T00:59:45.123Z,39.1270
2022-07-28T00:59:56.184Z,39.0380
2022-07-28T01:00:07.378Z,39.0090
2022-07-28T01:00:18.445Z,38.9720
2022-07-28T01:00:29.536Z,38.9610
2022-07-28T01:00:40.554Z,38.9610
2022-07-28T01:00:51.614Z,38.9550
2022-07-28T01:01:02.678Z,38.9610
2022-07-28T01:01:13.739Z,38.9550
2022-07-28T01:01:24.869Z,38.9610
2022-07-28T01:01:35.980Z,38.9440
2022-07-28T01:01:47.215Z,38.9260
2022-07-28T01:01:58.454Z,38.9610
2022-07-28T01:02:09.960Z,38.9550
2022-07-28T01:02:21.303Z,38.9720
2022-07-28T01:02:32.643Z,38.9490
2022-07-28T01:02:44.118Z,38.9550
2022-07-28T01:02:55.394Z,38.9380
2022-07-28T01:03:06.754Z,38.9720
2022-07-28T01:03:17.886Z,38.9490
2022-07-28T01:03:28.951Z,38.9550
2022-07-28T01:03:40.151Z,38.9260
2022-07-28T01:03:51.224Z,38.9260
2022-07-28T01:04:02.280Z,38.9100
2022-07-28T01:04:13.926Z,38.9270
2022-07-28T01:04:25.170Z,38.9800
2022-07-28T01:04:36.237Z,38.9610
2022-07-28T01:04:47.307Z,38.9560
2022-07-28T01:04:58.386Z,38.9500
2022-07-28T01:05:09.448Z,38.9270
2022-07-28T01:05:43.251Z,38.9150
2022-07-28T01:05:43.303Z,39.1270
2022-07-28T01:05:54.457Z,39.2120
2022-07-28T01:06:05.505Z,39.0860
2022-07-28T01:06:16.587Z,39.0150
2022-07-28T01:06:27.666Z,38.9830
2022-07-28T01:06:38.747Z,38.9590
2022-07-28T01:06:49.808Z,38.9710
2022-07-28T01:07:00.882Z,38.9590
2022-07-28T01:07:11.966Z,38.9590
2022-07-28T01:07:23.037Z,38.9710
2022-07-28T01:07:34.105Z,38.9710
2022-07-28T01:07:45.432Z,38.9710
2022-07-28T01:07:56.499Z,38.9710
2022-07-28T01:08:07.551Z,38.9650
2022-07-28T01:08:18.627Z,38.9770
2022-07-28T01:08:29.692Z,38.9830
2022-07-28T01:08:40.737Z,38.9710
2022-07-28T01:08:51.818Z,38.9540
2022-07-28T01:09:03.030Z,38.9650
2022-07-28T01:09:14.232Z,38.9710
2022-07-28T01:09:25.287Z,38.9770
2022-07-28T01:09:36.362Z,38.9830
2022-07-28T01:09:47.416Z,38.9770
2022-07-28T01:09:58.457Z,38.9710
2022-07-28T01:10:09.530Z,38.9590
2022-07-28T01:10:20.609Z,38.9590
2022-07-28T01:10:31.685Z,38.9590
2022-07-28T01:10:42.767Z,38.9540
2022-07-28T01:10:53.818Z,38.9420
2022-07-28T01:11:05.017Z,38.9420
2022-07-28T01:11:16.988Z,38.9770
2022-07-28T01:11:28.047Z,38.9420
2022-07-28T01:11:42.614Z,38.9120
2022-07-28T01:11:54.588Z,39.1160
2022-07-28T01:12:05.809Z,38.9960
2022-07-28T01:12:17.304Z,38.9750
2022-07-28T01:12:28.347Z,38.9590
2022-07-28T01:12:39.433Z,38.9290
2022-07-28T01:12:50.498Z,38.9120
2022-07-28T01:13:01.849Z,38.9270
2022-07-28T01:13:12.920Z,38.8960
2022-07-28T01:13:24.008Z,38.8900
2022-07-28T01:13:35.331Z,38.8960
2022-07-28T01:13:46.385Z,38.8650
2022-07-28T01:13:57.454Z,38.8230
2022-07-28T01:14:08.660Z,38.8090
2022-07-28T01:14:19.714Z,38.7900
2022-07-28T01:14:30.776Z,38.7730
2022-07-28T01:14:41.815Z,38.7840
2022-07-28T01:14:52.874Z,38.7780
2022-07-28T01:15:03.943Z,38.7610
2022-07-28T01:15:15.016Z,38.7610
2022-07-28T01:15:26.071Z,38.8030
2022-07-28T01:15:37.390Z,38.8000
2022-07-28T01:15:48.563Z,38.8120
2022-07-28T01:15:59.653Z,38.8170
2022-07-28T01:16:10.924Z,38.8310
2022-07-28T01:16:22.633Z,38.8500
2022-07-28T01:16:34.962Z,38.9150
2022-07-28T01:16:46.068Z,38.8680
2022-07-28T01:16:57.128Z,38.8500
2022-07-28T01:17:08.331Z,38.8500
2022-07-28T01:17:19.435Z,38.8330
2022-07-28T01:17:30.503Z,38.8330
2022-07-28T01:17:41.720Z,38.8140
2022-07-28T01:17:52.783Z,38.8450
2022-07-28T01:18:03.865Z,38.8560
2022-07-28T01:18:14.914Z,38.8740
2022-07-28T01:18:25.989Z,38.8500
2022-07-28T01:18:37.054Z,38.8390
2022-07-28T01:18:48.102Z,38.8450
2022-07-28T01:18:59.143Z,38.8560
2022-07-28T01:19:10.375Z,38.8450
2022-07-28T01:19:21.436Z,38.8560
2022-07-28T01:19:32.515Z,38.8500
2022-07-28T01:19:43.854Z,38.8330
2022-07-28T01:19:54.912Z,38.8390
2022-07-28T01:20:05.962Z,38.8470
2022-07-28T01:20:17.034Z,38.8660
2022-07-28T01:20:28.091Z,38.8770
2022-07-28T01:20:39.171Z,38.8890
2022-07-28T01:20:50.250Z,38.8720
2022-07-28T01:21:01.310Z,38.8470
2022-07-28T01:21:12.568Z,38.8350
2022-07-28T01:21:23.614Z,38.8660
2022-07-28T01:21:34.667Z,38.8470
2022-07-28T01:21:45.915Z,38.8590
2022-07-28T01:21:56.985Z,38.8590
2022-07-28T01:22:08.056Z,38.8470
2022-07-28T01:22:19.104Z,38.8470
2022-07-28T01:22:30.174Z,38.8510
2022-07-28T01:22:41.261Z,38.8510
2022-07-28T01:22:52.328Z,38.8510
2022-07-28T01:23:03.394Z,38.8630
2022-07-28T01:23:14.584Z,38.8450
2022-07-28T01:23:25.661Z,38.8630
2022-07-28T01:23:36.714Z,38.8610
2022-07-28T01:23:47.909Z,38.8780
2022-07-28T01:23:58.971Z,38.8780
2022-07-28T01:24:10.344Z,38.8720
2022-07-28T01:24:21.917Z,38.8980
2022-07-28T01:24:32.973Z,38.8680
2022-07-28T01:24:44.046Z,38.8630
2022-07-28T01:24:55.111Z,38.8630
2022-07-28T01:25:06.182Z,38.8570
2022-07-28T01:25:17.614Z,38.8450
2022-07-28T01:25:28.670Z,38.8630
2022-07-28T01:25:39.720Z,38.8480
2022-07-28T01:25:56.679Z,39.0360
2022-07-28T01:26:07.741Z,38.9700
2022-07-28T01:26:18.889Z,38.8930
2022-07-28T01:26:29.969Z,38.8800
2022-07-28T01:26:41.027Z,38.8750
2022-07-28T01:26:52.099Z,38.8690
2022-07-28T01:27:03.179Z,38.8570
2022-07-28T01:27:14.252Z,38.8800
2022-07-28T01:27:25.333Z,38.8780
2022-07-28T01:27:36.654Z,38.8610
2022-07-28T01:27:47.874Z,38.8740
2022-07-28T01:27:58.926Z,38.8570
2022-07-28T01:28:09.994Z,38.8220
2022-07-28T01:28:21.043Z,38.8150
2022-07-28T01:28:32.115Z,38.8280
2022-07-28T01:28:43.192Z,38.8220
2022-07-28T01:28:54.263Z,38.8300
2022-07-28T01:29:05.444Z,38.8510
2022-07-28T01:29:16.515Z,38.8510
2022-07-28T01:29:27.577Z,38.8280
2022-07-28T01:29:38.931Z,38.8280
2022-07-28T01:29:50.127Z,38.8450
2022-07-28T01:30:01.189Z,38.8340
2022-07-28T01:30:12.252Z,38.8280
2022-07-28T01:30:26.195Z,38.8340
2022-07-28T01:30:39.287Z,39.0130
2022-07-28T01:30:50.831Z,38.8880
2022-07-28T01:31:01.961Z,38.8800
2022-07-28T01:31:13.097Z,38.8570
2022-07-28T01:31:24.173Z,38.8340
2022-07-28T01:31:35.324Z,38.8400
2022-07-28T01:31:48.189Z,38.9050
2022-07-28T01:31:59.304Z,38.8460
2022-07-28T01:32:10.535Z,38.8340
2022-07-28T01:32:21.600Z,38.8340
2022-07-28T01:32:32.658Z,38.8340
2022-07-28T01:32:43.772Z,38.8290
2022-07-28T01:32:54.819Z,38.8170
2022-07-28T01:33:05.863Z,38.8040
2022-07-28T01:33:16.933Z,38.8230
2022-07-28T01:33:28.009Z,38.8170
2022-07-28T01:33:39.083Z,38.8250
2022-07-28T01:33:50.153Z,38.8440
2022-07-28T01:34:01.217Z,38.8500
2022-07-28T01:34:12.861Z,38.8500
2022-07-28T01:34:24.223Z,38.8840
2022-07-28T01:34:35.302Z,38.8500
2022-07-28T01:34:46.380Z,38.8370
2022-07-28T01:34:57.431Z,38.8310
2022-07-28T01:35:08.500Z,38.8310
2022-07-28T01:35:19.589Z,38.8250
2022-07-28T01:35:30.629Z,38.8370
2022-07-28T01:35:42.049Z,38.8440
2022-07-28T01:35:53.102Z,38.8610
2022-07-28T01:36:04.175Z,38.8670
2022-07-28T01:36:15.329Z,38.8730
2022-07-28T01:36:26.390Z,38.8730
2022-07-28T01:36:37.447Z,38.8670
2022-07-28T01:36:48.503Z,38.8670
2022-07-28T01:36:59.575Z,38.8550
2022-07-28T01:37:10.649Z,38.8550
2022-07-28T01:37:21.714Z,38.8610
2022-07-28T01:37:32.782Z,38.8690
2022-07-28T01:37:44.014Z,38.8770
2022-07-28T01:37:55.075Z,38.8770
2022-07-28T01:38:06.134Z,38.8580
2022-07-28T01:38:17.335Z,38.8520
2022-07-28T01:38:28.406Z,38.8690
2022-07-28T01:38:39.485Z,38.8640
2022-07-28T01:38:50.543Z,38.8520
2022-07-28T01:39:01.614Z,38.8580
2022-07-28T01:39:12.711Z,38.8520
2022-07-28T01:39:23.783Z,38.8440
2022-07-28T01:39:34.835Z,38.8460
2022-07-28T01:39:46.028Z,38.8500
2022-07-28T01:39:57.073Z,38.8500
2022-07-28T01:40:08.144Z,38.8370
2022-07-28T01:40:19.470Z,38.8250
2022-07-28T01:40:30.535Z,38.8370
2022-07-28T01:40:41.596Z,38.8310
2022-07-28T01:40:52.654Z,38.8250
2022-07-28T01:41:03.726Z,38.8310
2022-07-28T01:41:14.804Z,38.8190
2022-07-28T01:41:25.946Z,38.8190
2022-07-28T01:41:37.030Z,38.8110
2022-07-28T01:41:48.141Z,38.8040
2022-07-28T01:41:59.200Z,38.7920
2022-07-28T01:42:10.272Z,38.7920
2022-07-28T01:42:21.436Z,38.7850
2022-07-28T01:42:32.502Z,38.7850
2022-07-28T01:42:43.564Z,38.8020
2022-07-28T01:42:54.728Z,38.7960
2022-07-28T01:43:05.778Z,38.7910
2022-07-28T01:43:19.704Z,38.9200
2022-07-28T01:43:30.747Z,38.8770
2022-07-28T01:43:41.823Z,38.8460
2022-07-28T01:43:53.024Z,38.8580
2022-07-28T01:44:04.098Z,38.8500
2022-07-28T01:44:15.661Z,38.8500
2022-07-28T01:44:27.276Z,38.9020
2022-07-28T01:44:38.464Z,38.8730
2022-07-28T01:44:49.855Z,38.8790
2022-07-28T01:45:00.924Z,38.8850
2022-07-28T01:45:11.993Z,38.8790
2022-07-28T01:45:23.197Z,38.8730
2022-07-28T01:45:34.254Z,38.8680
2022-07-28T01:45:45.303Z,38.8730
2022-07-28T01:45:56.463Z,38.8730
2022-07-28T01:46:07.861Z,38.8790
2022-07-28T01:46:18.910Z,38.8850
2022-07-28T01:46:30.085Z,38.8680
2022-07-28T01:46:41.508Z,38.8730
2022-07-28T01:46:52.873Z,38.8910
2022-07-28T01:47:03.998Z,38.8960
2022-07-28T01:47:15.064Z,38.8730
2022-07-28T01:47:26.117Z,38.8440
2022-07-28T01:47:37.173Z,38.8500
2022-07-28T01:47:48.254Z,38.8500
2022-07-28T01:47:59.361Z,38.8410
2022-07-28T01:48:10.911Z,38.8390
2022-07-28T01:48:21.972Z,38.8500
2022-07-28T01:48:33.029Z,38.8620
2022-07-28T01:48:44.171Z,38.8680
2022-07-28T01:48:55.295Z,38.8850
2022-07-28T01:49:06.506Z,38.8850
2022-07-28T01:49:17.631Z,38.8620
2022-07-28T01:49:28.698Z,38.8520
2022-07-28T01:49:39.861Z,38.8310
2022-07-28T01:49:50.924Z,38.8140
2022-07-28T01:50:01.974Z,38.7920
2022-07-28T01:50:13.230Z,38.7980
2022-07-28T01:50:24.297Z,38.7980
2022-07-28T01:50:35.367Z,38.7870
2022-07-28T01:50:46.438Z,38.8040
2022-07-28T01:50:57.499Z,38.7810
2022-07-28T01:51:08.566Z,38.7640
2022-07-28T01:51:19.616Z,38.7690
2022-07-28T01:51:30.679Z,38.7640
2022-07-28T01:51:41.887Z,38.7650
2022-07-28T01:51:52.943Z,38.7710
2022-07-28T01:52:04.013Z,38.7520
2022-07-28T01:52:15.208Z,38.7250
2022-07-28T01:52:26.281Z,38.6880
2022-07-28T01:52:37.338Z,38.6660
2022-07-28T01:52:48.429Z,38.6710
2022-07-28T01:52:59.527Z,38.6880
2022-07-28T01:53:10.608Z,38.6770
2022-07-28T01:53:21.658Z,38.6830
2022-07-28T01:53:37.528Z,38.7060
2022-07-28T01:53:49.688Z,38.8850
2022-07-28T01:54:00.751Z,38.8170
2022-07-28T01:54:12.250Z,38.7600
2022-07-28T01:54:23.728Z,38.7900
2022-07-28T01:54:34.785Z,38.7480
2022-07-28T01:54:46.069Z,38.7370
2022-07-28T01:54:58.940Z,38.8290
2022-07-28T01:55:10.002Z,38.7870
2022-07-28T01:55:21.091Z,38.7750
2022-07-28T01:55:32.139Z,38.7490
2022-07-28T01:55:43.210Z,38.7600
2022-07-28T01:55:54.270Z,38.7910
2022-07-28T01:56:05.331Z,38.7850
2022-07-28T01:56:16.896Z,38.7930
2022-07-28T01:56:27.948Z,38.8350
2022-07-28T01:56:39.039Z,38.8350
2022-07-28T01:56:50.247Z,38.8350
2022-07-28T01:57:01.310Z,38.8290
2022-07-28T01:57:12.381Z,38.8290
2022-07-28T01:57:23.452Z,38.8120
2022-07-28T01:57:34.521Z,38.8230
2022-07-28T01:57:45.586Z,38.8260
2022-07-28T01:57:56.636Z,38.8140
2022-07-28T01:58:08.022Z,38.8330
2022-07-28T01:58:19.221Z,38.8660
2022-07-28T01:58:30.322Z,38.8950
2022-07-28T01:58:41.384Z,38.8880
2022-07-28T01:58:52.572Z,38.8880
2022-07-28T01:59:03.638Z,38.8880
2022-07-28T01:59:14.721Z,38.8990
2022-07-28T01:59:25.776Z,38.9180
2022-07-28T01:59:36.827Z,38.9060
2022-07-28T01:59:47.899Z,38.9060
2022-07-28T01:59:58.957Z,38.9180
2022-07-28T02:00:10.229Z,38.9240
2022-07-28T02:00:21.450Z,38.8950
2022-07-28T02:00:32.536Z,38.8950
2022-07-28T02:00:43.994Z,38.9060
2022-07-28T02:00:55.167Z,38.8770
2022-07-28T02:01:06.242Z,38.8730
2022-07-28T02:01:17.317Z,38.8390
2022-07-28T02:01:28.435Z,38.8260
2022-07-28T02:01:39.513Z,38.8230
2022-07-28T02:01:50.671Z,38.8230
2022-07-28T02:02:01.910Z,38.8120
2022-07-28T02:02:12.957Z,38.8020
2022-07-28T02:02:24.166Z,38.7960
2022-07-28T02:02:35.248Z,38.7790
2022-07-28T02:02:46.327Z,38.7640
2022-07-28T02:02:57.374Z,38.7330
2022-07-28T02:03:08.566Z,38.7100
2022-07-28T02:03:19.610Z,38.7220
2022-07-28T02:03:30.685Z,38.7160
2022-07-28T02:03:41.716Z,38.7220
2022-07-28T02:03:52.802Z,38.7160
2022-07-28T02:04:03.879Z,38.7430
2022-07-28T02:04:17.089Z,38.8250
2022-07-28T02:04:28.425Z,38.8190
2022-07-28T02:04:39.570Z,38.7730
2022-07-28T02:04:50.661Z,38.7490
2022-07-28T02:05:01.798Z,38.7260
2022-07-28T02:05:13.127Z,38.7220
2022-07-28T02:05:26.292Z,38.8110
2022-07-28T02:05:37.336Z,38.7410
2022-07-28T02:05:48.402Z,38.7140
2022-07-28T02:05:59.455Z,38.7140
2022-07-28T02:06:10.512Z,38.6930
2022-07-28T02:06:21.582Z,38.6740
2022-07-28T02:06:32.637Z,38.6410
2022-07-28T02:06:43.788Z,38.6300
2022-07-28T02:06:54.859Z,38.5970
2022-07-28T02:07:05.929Z,38.5730
2022-07-28T02:07:17.278Z,38.5410
2022-07-28T02:07:28.335Z,38.5270
2022-07-28T02:07:39.400Z,38.4910
2022-07-28T02:07:50.451Z,38.4730
2022-07-28T02:08:01.519Z,38.4680
2022-07-28T02:08:12.625Z,38.4790
2022-07-28T02:08:23.678Z,38.4850
2022-07-28T02:08:34.734Z,38.4790
2022-07-28T02:08:45.798Z,38.4850
2022-07-28T02:08:56.880Z,38.4850
2022-07-28T02:09:07.959Z,38.5060
2022-07-28T02:09:19.031Z,38.5290
2022-07-28T02:09:30.103Z,38.5410
2022-07-28T02:09:41.158Z,38.5540
2022-07-28T02:09:52.238Z,38.5480
2022-07-28T02:10:03.318Z,38.5490
2022-07-28T02:10:14.388Z,38.5680
2022-07-28T02:10:25.428Z,38.5790
2022-07-28T02:10:36.481Z,38.5410
2022-07-28T02:10:47.571Z,38.5180
2022-07-28T02:10:58.618Z,38.4970
2022-07-28T02:11:10.008Z,38.4910
2022-07-28T02:11:21.307Z,38.5240
2022-07-28T02:11:32.381Z,38.5120
2022-07-28T02:11:43.452Z,38.5180
2022-07-28T02:11:54.520Z,38.4830
2022-07-28T02:12:05.586Z,38.4830
2022-07-28T02:12:16.665Z,38.4950
2022-07-28T02:12:27.716Z,38.5060
2022-07-28T02:12:38.786Z,38.5350
2022-07-28T02:12:50.057Z,38.5290
2022-07-28T02:13:01.093Z,38.5430
2022-07-28T02:13:12.150Z,38.5510
2022-07-28T02:13:23.393Z,38.5740
2022-07-28T02:13:34.478Z,38.5510
2022-07-28T02:13:45.543Z,38.5210
2022-07-28T02:13:56.594Z,38.5260
2022-07-28T02:14:07.660Z,38.5320
2022-07-28T02:14:18.865Z,38.5260
2022-07-28T02:14:29.914Z,38.5510
2022-07-28T02:14:40.968Z,38.5570
2022-07-28T02:14:52.033Z,38.5650
2022-07-28T02:15:03.113Z,38.5650
2022-07-28T02:15:14.176Z,38.5620
2022-07-28T02:15:25.409Z,38.5510
2022-07-28T02:15:36.621Z,38.5510
2022-07-28T02:15:47.799Z,38.5620
2022-07-28T02:15:58.901Z,38.5450
2022-07-28T02:16:10.265Z,38.5380
2022-07-28T02:16:21.787Z,38.5570
2022-07-28T02:16:32.867Z,38.5450
2022-07-28T02:16:43.944Z,38.5200